sensor_id;sensor_type;location;lat;lon;timestamp;pressure;altitude;pressure_sealevel;temperature;humidity
79309;BME280;68767;53.078;7.386;2023-04-03T00:01:16;103430.06;;;0.96;68.81
79309;BME280;68767;53.078;7.386;2023-04-03T00:03:43;103431.28;;;0.93;69.32
79309;BME280;68767;53.078;7.386;2023-04-03T00:06:11;103435.75;;;0.93;69.26
79309;BME280;68767;53.078;7.386;2023-04-03T00:08:39;103434.47;;;0.89;69.72
79309;BME280;68767;53.078;7.386;2023-04-03T00:11:07;103436.06;;;0.83;69.26
79309;BME280;68767;53.078;7.386;2023-04-03T00:13:34;103429.09;;;0.82;69.50
79309;BME280;68767;53.078;7.386;2023-04-03T00:16:01;103432.13;;;0.79;70.08
79309;BME280;68767;53.078;7.386;2023-04-03T00:18:29;103430.88;;;0.75;70.15
79309;BME280;68767;53.078;7.386;2023-04-03T00:20:56;103429.41;;;0.72;70.69
79309;BME280;68767;53.078;7.386;2023-04-03T00:23:23;103428.16;;;0.68;70.39
79309;BME280;68767;53.078;7.386;2023-04-03T00:25:50;103439.91;;;0.66;71.57
79309;BME280;68767;53.078;7.386;2023-04-03T00:28:17;103428.50;;;0.65;72.13
79309;BME280;68767;53.078;7.386;2023-04-03T00:30:44;103429.72;;;0.63;70.96
79309;BME280;68767;53.078;7.386;2023-04-03T00:33:12;103439.41;;;0.55;71.92
79309;BME280;68767;53.078;7.386;2023-04-03T00:35:39;103436.56;;;0.57;72.39
79309;BME280;68767;53.078;7.386;2023-04-03T00:38:07;103440.41;;;0.54;72.22
79309;BME280;68767;53.078;7.386;2023-04-03T00:40:38;103443.25;;;0.53;72.07
79309;BME280;68767;53.078;7.386;2023-04-03T00:43:16;103429.38;;;0.51;72.57
79309;BME280;68767;53.078;7.386;2023-04-03T00:45:48;103432.19;;;0.49;72.64
79309;BME280;68767;53.078;7.386;2023-04-03T00:48:20;103439.25;;;0.42;73.13
79309;BME280;68767;53.078;7.386;2023-04-03T00:50:48;103435.94;;;0.40;73.34
79309;BME280;68767;53.078;7.386;2023-04-03T00:53:18;103443.25;;;0.38;73.83
79309;BME280;68767;53.078;7.386;2023-04-03T00:55:47;103443.63;;;0.35;73.89
79309;BME280;68767;53.078;7.386;2023-04-03T00:58:17;103442.63;;;0.36;74.06
79309;BME280;68767;53.078;7.386;2023-04-03T01:00:50;103447.44;;;0.33;74.53
79309;BME280;68767;53.078;7.386;2023-04-03T01:03:20;103447.63;;;0.31;74.34
79309;BME280;68767;53.078;7.386;2023-04-03T01:05:47;103441.91;;;0.27;74.83
79309;BME280;68767;53.078;7.386;2023-04-03T01:08:14;103436.63;;;0.27;75.23
79309;BME280;68767;53.078;7.386;2023-04-03T01:10:40;103439.97;;;0.21;75.25
79309;BME280;68767;53.078;7.386;2023-04-03T01:13:25;103442.72;;;0.13;75.18
79309;BME280;68767;53.078;7.386;2023-04-03T01:15:53;103443.34;;;0.15;75.16
79309;BME280;68767;53.078;7.386;2023-04-03T01:18:22;103446.00;;;0.15;75.69
79309;BME280;68767;53.078;7.386;2023-04-03T01:20:58;103450.28;;;0.16;75.63
79309;BME280;68767;53.078;7.386;2023-04-03T01:23:47;103442.72;;;0.13;75.98
79309;BME280;68767;53.078;7.386;2023-04-03T01:26:19;103445.00;;;0.16;76.35
79309;BME280;68767;53.078;7.386;2023-04-03T01:28:46;103440.63;;;0.09;75.91
79309;BME280;68767;53.078;7.386;2023-04-03T01:31:24;103445.81;;;0.02;76.47
79309;BME280;68767;53.078;7.386;2023-04-03T01:33:52;103446.00;;;0.01;77.26
79309;BME280;68767;53.078;7.386;2023-04-03T01:36:23;103449.19;;;-0.04;77.04
79309;BME280;68767;53.078;7.386;2023-04-03T01:38:52;103451.66;;;-0.03;77.04
79309;BME280;68767;53.078;7.386;2023-04-03T01:41:19;103451.53;;;-0.09;77.34
79309;BME280;68767;53.078;7.386;2023-04-03T01:43:48;103451.53;;;-0.09;77.34
79309;BME280;68767;53.078;7.386;2023-04-03T01:46:16;103454.56;;;-0.12;77.71
79309;BME280;68767;53.078;7.386;2023-04-03T01:48:43;103448.34;;;-0.19;77.66
79309;BME280;68767;53.078;7.386;2023-04-03T01:51:10;103450.34;;;-0.21;78.48
79309;BME280;68767;53.078;7.386;2023-04-03T01:53:36;103463.56;;;-0.21;78.60
79309;BME280;68767;53.078;7.386;2023-04-03T01:56:04;103451.19;;;-0.21;78.03
79309;BME280;68767;53.078;7.386;2023-04-03T01:58:31;103455.09;;;-0.32;78.24
79309;BME280;68767;53.078;7.386;2023-04-03T02:00:58;103452.63;;;-0.33;79.06
79309;BME280;68767;53.078;7.386;2023-04-03T02:03:24;103444.78;;;-0.41;78.54
79309;BME280;68767;53.078;7.386;2023-04-03T02:05:51;103446.31;;;-0.47;79.41
79309;BME280;68767;53.078;7.386;2023-04-03T02:08:18;103460.56;;;-0.56;79.57
79309;BME280;68767;53.078;7.386;2023-04-03T02:10:49;103446.88;;;-0.60;80.34
79309;BME280;68767;53.078;7.386;2023-04-03T02:13:17;103453.81;;;-0.59;79.68
79309;BME280;68767;53.078;7.386;2023-04-03T02:15:44;103443.09;;;-0.57;81.12
79309;BME280;68767;53.078;7.386;2023-04-03T02:18:12;103448.59;;;-0.67;80.22
79309;BME280;68767;53.078;7.386;2023-04-03T02:20:38;103455.41;;;-0.72;80.69
79309;BME280;68767;53.078;7.386;2023-04-03T02:23:05;103448.50;;;-0.73;81.87
79309;BME280;68767;53.078;7.386;2023-04-03T02:25:32;103457.31;;;-0.81;80.89
79309;BME280;68767;53.078;7.386;2023-04-03T02:28:01;103457.00;;;-0.86;81.21
79309;BME280;68767;53.078;7.386;2023-04-03T02:30:28;103472.75;;;-1.01;81.91
79309;BME280;68767;53.078;7.386;2023-04-03T02:32:55;103476.81;;;-0.90;82.40
79309;BME280;68767;53.078;7.386;2023-04-03T02:35:22;103485.66;;;-0.83;81.82
79309;BME280;68767;53.078;7.386;2023-04-03T02:37:49;103484.50;;;-0.80;82.40
79309;BME280;68767;53.078;7.386;2023-04-03T02:40:16;103487.66;;;-0.85;82.17
79309;BME280;68767;53.078;7.386;2023-04-03T02:42:42;103493.19;;;-0.72;81.40
79309;BME280;68767;53.078;7.386;2023-04-03T02:45:09;103493.19;;;-0.72;81.59
79309;BME280;68767;53.078;7.386;2023-04-03T02:47:36;103495.00;;;-0.72;81.68
79309;BME280;68767;53.078;7.386;2023-04-03T02:50:03;103501.44;;;-0.75;81.17
79309;BME280;68767;53.078;7.386;2023-04-03T02:52:30;103498.47;;;-0.72;81.32
79309;BME280;68767;53.078;7.386;2023-04-03T02:54:57;103495.66;;;-0.70;81.75
79309;BME280;68767;53.078;7.386;2023-04-03T02:57:23;103502.22;;;-0.66;81.60
79309;BME280;68767;53.078;7.386;2023-04-03T02:59:50;103502.44;;;-0.76;81.47
79309;BME280;68767;53.078;7.386;2023-04-03T03:02:17;103503.97;;;-0.81;81.95
79309;BME280;68767;53.078;7.386;2023-04-03T03:04:44;103508.13;;;-0.87;82.61
79309;BME280;68767;53.078;7.386;2023-04-03T03:07:11;103515.91;;;-0.94;82.58
79309;BME280;68767;53.078;7.386;2023-04-03T03:09:37;103509.63;;;-0.93;82.45
79309;BME280;68767;53.078;7.386;2023-04-03T03:12:04;103515.44;;;-0.97;82.39
79309;BME280;68767;53.078;7.386;2023-04-03T03:14:31;103507.13;;;-0.86;82.37
79309;BME280;68767;53.078;7.386;2023-04-03T03:16:58;103499.91;;;-0.92;82.45
79309;BME280;68767;53.078;7.386;2023-04-03T03:19:25;103502.84;;;-0.87;82.40
79309;BME280;68767;53.078;7.386;2023-04-03T03:21:51;103502.53;;;-0.92;82.95
79309;BME280;68767;53.078;7.386;2023-04-03T03:24:18;103504.66;;;-0.88;82.31
79309;BME280;68767;53.078;7.386;2023-04-03T03:26:45;103519.03;;;-0.90;82.57
79309;BME280;68767;53.078;7.386;2023-04-03T03:29:12;103508.19;;;-0.95;82.83
79309;BME280;68767;53.078;7.386;2023-04-03T03:31:38;103510.19;;;-0.97;83.14
79309;BME280;68767;53.078;7.386;2023-04-03T03:34:05;103516.09;;;-0.95;83.08
79309;BME280;68767;53.078;7.386;2023-04-03T03:36:32;103510.81;;;-0.95;83.69
79309;BME280;68767;53.078;7.386;2023-04-03T03:38:59;103513.00;;;-0.99;83.59
79309;BME280;68767;53.078;7.386;2023-04-03T03:41:26;103518.59;;;-1.02;83.84
79309;BME280;68767;53.078;7.386;2023-04-03T03:43:52;103521.41;;;-1.03;83.74
79309;BME280;68767;53.078;7.386;2023-04-03T03:46:19;103517.31;;;-1.06;84.10
79309;BME280;68767;53.078;7.386;2023-04-03T03:48:46;103509.09;;;-1.11;84.22
79309;BME280;68767;53.078;7.386;2023-04-03T03:51:12;103513.03;;;-1.07;84.35
79309;BME280;68767;53.078;7.386;2023-04-03T03:53:39;103515.00;;;-1.09;84.37
79309;BME280;68767;53.078;7.386;2023-04-03T03:56:06;103520.13;;;-1.07;84.72
79309;BME280;68767;53.078;7.386;2023-04-03T03:58:33;103522.91;;;-1.09;84.49
79309;BME280;68767;53.078;7.386;2023-04-03T04:01:04;103526.25;;;-1.15;84.60
79309;BME280;68767;53.078;7.386;2023-04-03T04:03:32;103526.03;;;-1.05;84.64
79309;BME280;68767;53.078;7.386;2023-04-03T04:05:59;103524.72;;;-1.09;84.06
79309;BME280;68767;53.078;7.386;2023-04-03T04:08:26;103520.50;;;-1.19;85.09
79309;BME280;68767;53.078;7.386;2023-04-03T04:10:52;103528.75;;;-1.22;84.54
79309;BME280;68767;53.078;7.386;2023-04-03T04:13:20;103531.06;;;-1.27;84.81
79309;BME280;68767;53.078;7.386;2023-04-03T04:15:47;103524.84;;;-1.34;85.26
79309;BME280;68767;53.078;7.386;2023-04-03T04:18:13;103524.53;;;-1.39;85.07
79309;BME280;68767;53.078;7.386;2023-04-03T04:20:41;103526.34;;;-1.39;85.41
79309;BME280;68767;53.078;7.386;2023-04-03T04:23:07;103526.50;;;-1.41;85.61
79309;BME280;68767;53.078;7.386;2023-04-03T04:25:34;103533.59;;;-1.42;85.66
79309;BME280;68767;53.078;7.386;2023-04-03T04:28:04;103524.06;;;-1.51;85.77
79309;BME280;68767;53.078;7.386;2023-04-03T04:30:31;103529.03;;;-1.48;85.95
79309;BME280;68767;53.078;7.386;2023-04-03T04:32:58;103543.66;;;-1.45;85.56
79309;BME280;68767;53.078;7.386;2023-04-03T04:35:25;103547.31;;;-1.46;86.07
79309;BME280;68767;53.078;7.386;2023-04-03T04:37:54;103548.28;;;-1.47;85.96
79309;BME280;68767;53.078;7.386;2023-04-03T04:40:21;103557.66;;;-1.45;85.83
79309;BME280;68767;53.078;7.386;2023-04-03T04:42:48;103550.25;;;-1.49;85.89
79309;BME280;68767;53.078;7.386;2023-04-03T04:45:15;103557.84;;;-1.46;86.07
79309;BME280;68767;53.078;7.386;2023-04-03T04:47:41;103543.66;;;-1.45;86.01
79309;BME280;68767;53.078;7.386;2023-04-03T04:50:09;103557.19;;;-1.48;86.09
79309;BME280;68767;53.078;7.386;2023-04-03T04:52:36;103561.97;;;-1.52;86.15
79309;BME280;68767;53.078;7.386;2023-04-03T04:55:03;103551.75;;;-1.47;86.11
79309;BME280;68767;53.078;7.386;2023-04-03T04:57:30;103552.06;;;-1.50;86.03
79309;BME280;68767;53.078;7.386;2023-04-03T04:59:57;103566.75;;;-1.47;85.99
79309;BME280;68767;53.078;7.386;2023-04-03T05:02:23;103562.78;;;-1.51;86.14
79309;BME280;68767;53.078;7.386;2023-04-03T05:04:50;103562.78;;;-1.51;86.12
79309;BME280;68767;53.078;7.386;2023-04-03T05:07:18;103562.16;;;-1.53;85.97
79309;BME280;68767;53.078;7.386;2023-04-03T05:09:45;103567.25;;;-1.60;86.10
79309;BME280;68767;53.078;7.386;2023-04-03T05:12:11;103566.63;;;-1.62;86.41
79309;BME280;68767;53.078;7.386;2023-04-03T05:14:38;103561.47;;;-1.47;86.07
79309;BME280;68767;53.078;7.386;2023-04-03T05:17:05;103566.41;;;-1.44;86.07
79309;BME280;68767;53.078;7.386;2023-04-03T05:19:32;103565.09;;;-1.48;85.97
79309;BME280;68767;53.078;7.386;2023-04-03T05:21:58;103567.03;;;-1.42;86.48
79309;BME280;68767;53.078;7.386;2023-04-03T05:24:25;103581.88;;;-1.41;86.58
79309;BME280;68767;53.078;7.386;2023-04-03T05:26:52;103581.56;;;-1.38;86.49
79309;BME280;68767;53.078;7.386;2023-04-03T05:29:19;103583.22;;;-1.45;86.13
79309;BME280;68767;53.078;7.386;2023-04-03T05:31:46;103582.03;;;-1.43;86.07
79309;BME280;68767;53.078;7.386;2023-04-03T05:34:12;103589.31;;;-1.45;86.51
79309;BME280;68767;53.078;7.386;2023-04-03T05:36:39;103588.00;;;-1.40;86.20
79309;BME280;68767;53.078;7.386;2023-04-03T05:39:06;103587.16;;;-1.41;86.90
79309;BME280;68767;53.078;7.386;2023-04-03T05:41:33;103590.78;;;-1.42;87.21
79309;BME280;68767;53.078;7.386;2023-04-03T05:43:59;103596.69;;;-1.32;86.55
79309;BME280;68767;53.078;7.386;2023-04-03T05:46:26;103592.22;;;-1.23;86.58
79309;BME280;68767;53.078;7.386;2023-04-03T05:48:53;103598.47;;;-1.24;85.75
79309;BME280;68767;53.078;7.386;2023-04-03T05:51:25;103600.47;;;-1.26;85.84
79309;BME280;68767;53.078;7.386;2023-04-03T05:54:17;103596.69;;;-1.24;85.84
79309;BME280;68767;53.078;7.386;2023-04-03T05:56:45;103593.03;;;-1.15;85.69
79309;BME280;68767;53.078;7.386;2023-04-03T05:59:11;103600.22;;;-1.08;86.57
79309;BME280;68767;53.078;7.386;2023-04-03T06:01:38;103593.47;;;-1.03;85.51
79309;BME280;68767;53.078;7.386;2023-04-03T06:04:05;103599.88;;;-0.97;85.34
79309;BME280;68767;53.078;7.386;2023-04-03T06:06:50;103602.81;;;-0.92;85.15
79309;BME280;68767;53.078;7.386;2023-04-03T06:09:22;103612.19;;;-0.81;85.09
79309;BME280;68767;53.078;7.386;2023-04-03T06:11:49;103615.47;;;-0.79;84.11
79309;BME280;68767;53.078;7.386;2023-04-03T06:14:16;103612.28;;;-0.75;84.12
79309;BME280;68767;53.078;7.386;2023-04-03T06:16:43;103622.66;;;-0.65;84.20
79309;BME280;68767;53.078;7.386;2023-04-03T06:19:11;103618.84;;;-0.63;83.55
79309;BME280;68767;53.078;7.386;2023-04-03T06:21:38;103624.75;;;-0.61;84.44
79309;BME280;68767;53.078;7.386;2023-04-03T06:24:06;103635.78;;;-0.49;83.83
79309;BME280;68767;53.078;7.386;2023-04-03T06:26:33;103629.00;;;-0.51;84.35
79309;BME280;68767;53.078;7.386;2023-04-03T06:29:00;103630.09;;;-0.38;82.99
79309;BME280;68767;53.078;7.386;2023-04-03T06:31:28;103635.31;;;-0.30;83.96
79309;BME280;68767;53.078;7.386;2023-04-03T06:33:56;103633.91;;;-0.17;82.33
79309;BME280;68767;53.078;7.386;2023-04-03T06:36:23;103630.38;;;-0.10;80.96
79309;BME280;68767;53.078;7.386;2023-04-03T06:38:49;103631.69;;;-0.06;81.39
79309;BME280;68767;53.078;7.386;2023-04-03T06:41:16;103629.63;;;0.05;80.94
79309;BME280;68767;53.078;7.386;2023-04-03T06:43:44;103630.94;;;0.09;80.69
79309;BME280;68767;53.078;7.386;2023-04-03T06:46:20;103626.91;;;0.13;81.05
79309;BME280;68767;53.078;7.386;2023-04-03T06:48:48;103627.09;;;0.11;81.73
79309;BME280;68767;53.078;7.386;2023-04-03T06:53:46;103648.22;;;0.34;79.03
79309;BME280;68767;53.078;7.386;2023-04-03T06:56:13;103649.19;;;0.33;81.11
79309;BME280;68767;53.078;7.386;2023-04-03T06:58:41;103654.25;;;0.43;79.68
79309;BME280;68767;53.078;7.386;2023-04-03T07:01:10;103653.00;;;0.53;78.96
79309;BME280;68767;53.078;7.386;2023-04-03T07:03:37;103654.94;;;0.60;78.92
79309;BME280;68767;53.078;7.386;2023-04-03T07:06:05;103652.47;;;0.73;78.51
79309;BME280;68767;53.078;7.386;2023-04-03T07:08:34;103657.22;;;0.77;77.99
79309;BME280;68767;53.078;7.386;2023-04-03T07:11:01;103659.69;;;0.79;77.95
79309;BME280;68767;53.078;7.386;2023-04-03T07:13:28;103663.34;;;0.93;77.78
79309;BME280;68767;53.078;7.386;2023-04-03T07:15:55;103667.56;;;1.02;76.19
79309;BME280;68767;53.078;7.386;2023-04-03T07:18:21;103667.81;;;1.07;76.82
79309;BME280;68767;53.078;7.386;2023-04-03T07:20:48;103672.94;;;1.08;77.38
79309;BME280;68767;53.078;7.386;2023-04-03T07:23:15;103674.19;;;1.27;76.19
79309;BME280;68767;53.078;7.386;2023-04-03T07:25:45;103678.00;;;1.39;73.63
79309;BME280;68767;53.078;7.386;2023-04-03T07:28:13;103677.63;;;1.57;73.35
79309;BME280;68767;53.078;7.386;2023-04-03T07:30:59;103678.59;;;1.71;73.10
79309;BME280;68767;53.078;7.386;2023-04-03T07:33:26;103676.22;;;1.76;71.74
79309;BME280;68767;53.078;7.386;2023-04-03T07:35:52;103678.53;;;1.86;71.52
79309;BME280;68767;53.078;7.386;2023-04-03T07:38:19;103683.34;;;1.97;69.99
79309;BME280;68767;53.078;7.386;2023-04-03T07:40:50;103684.16;;;2.19;67.69
79309;BME280;68767;53.078;7.386;2023-04-03T07:43:18;103696.34;;;2.35;68.10
79309;BME280;68767;53.078;7.386;2023-04-03T07:45:47;103682.34;;;2.41;68.65
79309;BME280;68767;53.078;7.386;2023-04-03T07:48:20;103686.63;;;2.42;66.38
79309;BME280;68767;53.078;7.386;2023-04-03T07:50:48;103687.44;;;2.42;67.37
79309;BME280;68767;53.078;7.386;2023-04-03T07:53:15;103681.66;;;2.60;65.60
79309;BME280;68767;53.078;7.386;2023-04-03T07:55:42;103683.78;;;2.71;62.40
79309;BME280;68767;53.078;7.386;2023-04-03T07:58:17;103682.50;;;2.95;63.91
79309;BME280;68767;53.078;7.386;2023-04-03T08:00:44;103675.56;;;2.94;63.88
79309;BME280;68767;53.078;7.386;2023-04-03T08:03:12;103686.75;;;3.24;61.02
79309;BME280;68767;53.078;7.386;2023-04-03T08:05:44;103686.03;;;3.44;62.14
79309;BME280;68767;53.078;7.386;2023-04-03T08:08:12;103691.97;;;3.52;62.71
79309;BME280;68767;53.078;7.386;2023-04-03T08:10:40;103687.28;;;3.54;59.98
79309;BME280;68767;53.078;7.386;2023-04-03T08:13:07;103693.63;;;3.53;59.02
79309;BME280;68767;53.078;7.386;2023-04-03T08:15:34;103693.03;;;3.58;60.71
79309;BME280;68767;53.078;7.386;2023-04-03T08:18:03;103683.69;;;3.82;59.78
79309;BME280;68767;53.078;7.386;2023-04-03T08:20:30;103688.22;;;4.01;60.80
79309;BME280;68767;53.078;7.386;2023-04-03T08:22:57;103680.28;;;4.14;59.01
79309;BME280;68767;53.078;7.386;2023-04-03T08:25:24;103684.97;;;4.19;59.29
79309;BME280;68767;53.078;7.386;2023-04-03T08:27:51;103684.16;;;4.25;58.89
79309;BME280;68767;53.078;7.386;2023-04-03T08:30:18;103676.19;;;4.51;56.50
79309;BME280;68767;53.078;7.386;2023-04-03T08:32:44;103679.25;;;4.48;53.66
79309;BME280;68767;53.078;7.386;2023-04-03T08:35:11;103684.56;;;4.29;54.34
79309;BME280;68767;53.078;7.386;2023-04-03T08:37:39;103686.19;;;4.30;54.10
79309;BME280;68767;53.078;7.386;2023-04-03T08:40:13;103680.50;;;4.39;53.97
79309;BME280;68767;53.078;7.386;2023-04-03T08:45:48;103679.03;;;4.76;54.78
79309;BME280;68767;53.078;7.386;2023-04-03T08:48:41;103678.78;;;4.98;54.47
79309;BME280;68767;53.078;7.386;2023-04-03T08:51:19;103670.72;;;5.11;52.81
79309;BME280;68767;53.078;7.386;2023-04-03T08:53:56;103666.38;;;5.30;52.67
79309;BME280;68767;53.078;7.386;2023-04-03T08:56:24;103661.53;;;5.52;52.72
79309;BME280;68767;53.078;7.386;2023-04-03T08:58:56;103662.03;;;5.35;50.63
79309;BME280;68767;53.078;7.386;2023-04-03T09:01:33;103660.94;;;5.50;50.93
79309;BME280;68767;53.078;7.386;2023-04-03T09:04:02;103660.94;;;5.50;50.25
79309;BME280;68767;53.078;7.386;2023-04-03T09:06:31;103667.91;;;5.89;49.73
79309;BME280;68767;53.078;7.386;2023-04-03T09:12:25;103660.16;;;5.81;46.92
79309;BME280;68767;53.078;7.386;2023-04-03T09:15:23;103661.25;;;5.73;47.08
79309;BME280;68767;53.078;7.386;2023-04-03T09:18:12;103658.31;;;5.81;47.75
79309;BME280;68767;53.078;7.386;2023-04-03T09:21:02;103656.06;;;5.78;46.50
79309;BME280;68767;53.078;7.386;2023-04-03T09:23:44;103655.47;;;5.76;46.76
79309;BME280;68767;53.078;7.386;2023-04-03T09:29:07;103654.06;;;5.74;44.99
79309;BME280;68767;53.078;7.386;2023-04-03T09:31:39;103651.47;;;6.24;47.48
79309;BME280;68767;53.078;7.386;2023-04-03T09:34:30;103654.19;;;6.17;44.16
79309;BME280;68767;53.078;7.386;2023-04-03T09:37:00;103649.66;;;6.42;40.81
79309;BME280;68767;53.078;7.386;2023-04-03T09:39:51;103650.31;;;6.63;44.85
79309;BME280;68767;53.078;7.386;2023-04-03T09:42:22;103655.66;;;6.81;42.57
79309;BME280;68767;53.078;7.386;2023-04-03T09:44:55;103654.63;;;6.82;42.16
79309;BME280;68767;53.078;7.386;2023-04-03T09:47:34;103651.19;;;6.93;39.04
79309;BME280;68767;53.078;7.386;2023-04-03T09:52:41;103641.25;;;6.64;41.10
79309;BME280;68767;53.078;7.386;2023-04-03T09:55:23;103649.03;;;6.84;40.24
79309;BME280;68767;53.078;7.386;2023-04-03T09:58:01;103635.78;;;6.95;38.57
79309;BME280;68767;53.078;7.386;2023-04-03T10:00:37;103632.66;;;6.98;40.59
79309;BME280;68767;53.078;7.386;2023-04-03T10:03:08;103641.75;;;7.27;40.22
79309;BME280;68767;53.078;7.386;2023-04-03T10:05:50;103628.97;;;7.59;40.83
79309;BME280;68767;53.078;7.386;2023-04-03T10:08:24;103636.56;;;7.14;40.05
79309;BME280;68767;53.078;7.386;2023-04-03T10:11:09;103633.09;;;7.14;40.16
79309;BME280;68767;53.078;7.386;2023-04-03T10:13:49;103632.97;;;7.39;39.00
79309;BME280;68767;53.078;7.386;2023-04-03T10:16:24;103637.53;;;7.01;38.14
79309;BME280;68767;53.078;7.386;2023-04-03T10:21:29;103629.72;;;7.18;37.70
79309;BME280;68767;53.078;7.386;2023-04-03T10:24:08;103634.22;;;7.36;39.73
79309;BME280;68767;53.078;7.386;2023-04-03T10:26:59;103629.28;;;7.81;39.01
79309;BME280;68767;53.078;7.386;2023-04-03T10:37:55;103615.16;;;7.32;36.72
79309;BME280;68767;53.078;7.386;2023-04-03T10:45:49;103608.69;;;7.82;40.37
79309;BME280;68767;53.078;7.386;2023-04-03T10:56:48;103599.81;;;7.70;38.31
79309;BME280;68767;53.078;7.386;2023-04-03T10:59:50;103601.63;;;8.11;36.41
79309;BME280;68767;53.078;7.386;2023-04-03T11:05:20;103592.41;;;8.18;37.38
79309;BME280;68767;53.078;7.386;2023-04-03T11:07:53;103586.38;;;8.23;38.69
79309;BME280;68767;53.078;7.386;2023-04-03T11:10:32;103587.88;;;8.66;35.76
79309;BME280;68767;53.078;7.386;2023-04-03T11:13:08;103594.84;;;8.67;35.44
79309;BME280;68767;53.078;7.386;2023-04-03T11:15:38;103578.25;;;8.41;35.54
79309;BME280;68767;53.078;7.386;2023-04-03T11:18:11;103576.81;;;8.27;34.57
79309;BME280;68767;53.078;7.386;2023-04-03T11:20:43;103579.72;;;8.26;36.17
79309;BME280;68767;53.078;7.386;2023-04-03T11:23:21;103576.56;;;7.94;34.00
79309;BME280;68767;53.078;7.386;2023-04-03T11:26:07;103568.69;;;8.22;37.67
79309;BME280;68767;53.078;7.386;2023-04-03T11:28:36;103565.28;;;8.15;38.77
79309;BME280;68767;53.078;7.386;2023-04-03T11:36:23;103546.91;;;8.94;36.23
79309;BME280;68767;53.078;7.386;2023-04-03T11:39:10;103549.25;;;8.90;37.84
79309;BME280;68767;53.078;7.386;2023-04-03T11:41:43;103544.69;;;9.19;35.26
79309;BME280;68767;53.078;7.386;2023-04-03T11:44:35;103543.63;;;8.92;33.49
79309;BME280;68767;53.078;7.386;2023-04-03T11:47:07;103543.34;;;9.05;33.97
79309;BME280;68767;53.078;7.386;2023-04-03T12:03:30;103522.13;;;9.82;34.26
79309;BME280;68767;53.078;7.386;2023-04-03T12:16:30;103504.94;;;9.16;32.05
79309;BME280;68767;53.078;7.386;2023-04-03T12:45:22;103472.56;;;10.51;33.16
79309;BME280;68767;53.078;7.386;2023-04-03T12:47:52;103474.53;;;10.17;31.10
79309;BME280;68767;53.078;7.386;2023-04-03T12:50:24;103467.03;;;10.35;32.29
79309;BME280;68767;53.078;7.386;2023-04-03T12:52:56;103472.97;;;10.86;32.75
79309;BME280;68767;53.078;7.386;2023-04-03T12:55:24;103456.75;;;10.54;32.85
79309;BME280;68767;53.078;7.386;2023-04-03T12:57:50;103453.03;;;10.17;32.20
79309;BME280;68767;53.078;7.386;2023-04-03T13:02:48;103456.63;;;10.22;34.60
79309;BME280;68767;53.078;7.386;2023-04-03T13:05:18;103450.41;;;9.61;33.22
79309;BME280;68767;53.078;7.386;2023-04-03T13:07:54;103445.75;;;9.73;32.89
79309;BME280;68767;53.078;7.386;2023-04-03T13:10:23;103449.81;;;9.59;34.54
79309;BME280;68767;53.078;7.386;2023-04-03T13:12:58;103445.63;;;10.02;32.85
79309;BME280;68767;53.078;7.386;2023-04-03T13:15:43;103454.28;;;9.87;35.58
79309;BME280;68767;53.078;7.386;2023-04-03T13:18:41;103446.56;;;9.74;32.83
79309;BME280;68767;53.078;7.386;2023-04-03T13:21:15;103445.09;;;10.44;35.45
79309;BME280;68767;53.078;7.386;2023-04-03T13:23:46;103443.22;;;10.22;31.13
79309;BME280;68767;53.078;7.386;2023-04-03T13:26:20;103436.88;;;10.55;31.76
79309;BME280;68767;53.078;7.386;2023-04-03T13:28:48;103431.75;;;10.81;33.80
79309;BME280;68767;53.078;7.386;2023-04-03T13:31:23;103429.00;;;11.03;30.45
79309;BME280;68767;53.078;7.386;2023-04-03T13:33:56;103416.84;;;11.74;31.32
79309;BME280;68767;53.078;7.386;2023-04-03T13:36:36;103419.34;;;11.81;31.22
79309;BME280;68767;53.078;7.386;2023-04-03T13:41:48;103419.84;;;11.78;29.11
79309;BME280;68767;53.078;7.386;2023-04-03T13:46:59;103421.31;;;11.53;28.89
79309;BME280;68767;53.078;7.386;2023-04-03T13:49:42;103415.69;;;12.07;27.66
79309;BME280;68767;53.078;7.386;2023-04-03T13:54:49;103409.94;;;12.77;27.63
79309;BME280;68767;53.078;7.386;2023-04-03T13:57:18;103401.06;;;12.86;28.14
79309;BME280;68767;53.078;7.386;2023-04-03T13:59:45;103403.50;;;13.08;28.20
79309;BME280;68767;53.078;7.386;2023-04-03T14:02:20;103396.75;;;13.26;26.70
79309;BME280;68767;53.078;7.386;2023-04-03T14:04:53;103412.66;;;13.02;27.80
79309;BME280;68767;53.078;7.386;2023-04-03T14:07:23;103404.47;;;13.73;25.61
79309;BME280;68767;53.078;7.386;2023-04-03T14:09:50;103398.88;;;13.39;26.44
79309;BME280;68767;53.078;7.386;2023-04-03T14:12:26;103405.75;;;13.96;24.01
79309;BME280;68767;53.078;7.386;2023-04-03T14:14:59;103393.53;;;14.09;24.48
79309;BME280;68767;53.078;7.386;2023-04-03T14:17:28;103398.53;;;13.71;26.18
79309;BME280;68767;53.078;7.386;2023-04-03T14:19:56;103395.50;;;14.43;25.49
79309;BME280;68767;53.078;7.386;2023-04-03T14:22:30;103393.75;;;14.67;24.18
79309;BME280;68767;53.078;7.386;2023-04-03T14:24:58;103380.63;;;13.96;24.52
79309;BME280;68767;53.078;7.386;2023-04-03T14:27:33;103396.88;;;13.91;26.46
79309;BME280;68767;53.078;7.386;2023-04-03T14:30:01;103381.84;;;14.24;25.16
79309;BME280;68767;53.078;7.386;2023-04-03T14:32:29;103383.03;;;14.52;25.42
79309;BME280;68767;53.078;7.386;2023-04-03T14:34:56;103384.56;;;13.44;26.46
79309;BME280;68767;53.078;7.386;2023-04-03T14:37:27;103380.44;;;14.76;25.52
79309;BME280;68767;53.078;7.386;2023-04-03T14:39:57;103378.66;;;14.12;25.08
79309;BME280;68767;53.078;7.386;2023-04-03T14:42:30;103385.91;;;13.52;26.10
79309;BME280;68767;53.078;7.386;2023-04-03T14:44:59;103374.22;;;13.76;26.79
79309;BME280;68767;53.078;7.386;2023-04-03T14:47:28;103369.72;;;14.95;24.16
79309;BME280;68767;53.078;7.386;2023-04-03T14:50:01;103369.56;;;14.42;25.49
79309;BME280;68767;53.078;7.386;2023-04-03T14:52:34;103366.09;;;15.04;25.72
79309;BME280;68767;53.078;7.386;2023-04-03T14:55:04;103358.78;;;14.76;26.36
79309;BME280;68767;53.078;7.386;2023-04-03T14:57:32;103359.41;;;14.63;26.33
79309;BME280;68767;53.078;7.386;2023-04-03T15:00:00;103352.09;;;14.63;27.04